Huvudsida
METAR-TAF:

METAR-TAF

Flygplatser :

Bornholms flygplats

Rønne, Danmark

latitud: 55-04N, longitud: 014-45E, höjd: 16 m

Aktuellt väderrapport

Denna rapport gjordes för 8 minuter sedan, klockan 18:50 UTC
Vind 12 kt från väst
Temperatur 14°C
Fuktighet 94%
Tryck 1022 hPa
Sikt 10 km eller mer

METAR: EKRN 201850Z AUTO 27012KT 9999 OVC031/// 14/13 Q1022

Tid: 20:58 (18:58 UTC)

Väderprognos

Denna rapport gjordes för 1 timme och 36 minuter sedan, klockan 17:22 UTC
Prognos gäller från 20 kl. 18 UTC till 20 kl. 22 UTC
Vind 12 kt från väst
Sikt 10 km eller mer
Brutna moln på en höjd av 2000 ft
Temporärt
från 20 kl. 18 UTC till 20 kl. 22 UTC
Brutna moln på en höjd av 1200 ft

TAF: EKRN 201722Z 2018/2022 28012KT 9999 BKN020 TEMPO 2018/2022 BKN012

Aktuella väderrapporter och prognoser från 4000 flygplatser (METAR- och TAF-rapporter).

De tillgängliga stationerna syns som gula och röda prickar på kartan.

För musen över prickarna för att se namnen på stationerna.

Klicka sedan för att få väderrapporter och prognoser.

För att ändra kartan: Klicka på de gröna knapparna med ett svart kors på för att zooma in; den gröna knappen med ett streck på för att zooma ut; eller på de gröna pilarna för angränsande kartor.


METAR-TAF: